Terminal Aerodrome Forecast
Issued by NWS Charleston, WV

Current Version | Previous Version | Graphics & Text | Print | Product List | Glossary On
Versions: 1 2 3 4 5 6 7 8 9 10 11 12 13 14 15 16 17 18 19 20 21 22 23 24
682
FTUS41 KRLX 091757 RRA
TAFEKN
TAF
KEKN 091757Z 0918/1018 27009G15KT 4SM -SHSN SCT015 OVC025
      TEMPO 0920/0924 1SM -SHSN BR BKN015
     FM100100 27010G19KT 1SM -SHSN SCT001 OVC008
     FM100300 27010G19KT 2SM -SHSN OVC015
     FM100800 27009KT 3SM -SHSN OVC015
     FM101500 27011G18KT 4SM -SHSN OVC020=

USA.gov is the U.S. government's official web portal to all federal, state and local government web resources and services.